RYR3175 LEIB-LEBL
Flight info
| Callsign | RYR3175 |
|---|---|
| Flight time | 0h 32m |
| Altitude | 24000 |
| Route | EPAMA N856 MARTA |
| Aircraft | B738/M-SDE3FGILRWY/SB1 |
Departure
| Time | 2026-04-30 11:26 |
|---|---|
| Airport | Ibiza Airport (LEIB) |
Arrival
| Time | 2026-04-30 11:58 |
|---|---|
| Airport | Josep Tarradellas Barcelona-El Prat Airport (LEBL) |
| Time | Latitude | Longitude | Altitude | Speed | Heading |
|---|---|---|---|---|---|
| 2026-04-30 11:11 | 38.87560 | 1.36920 | 9 ft | 0 kts | 332° |
| 2026-04-30 11:21 | 38.87547 | 1.36928 | 7 ft | 4 kts | 332° |
| 2026-04-30 11:21 | 38.87527 | 1.36942 | 7 ft | 2 kts | 333° |
| 2026-04-30 11:21 | 38.87509 | 1.36959 | 7 ft | 4 kts | 281° |
| 2026-04-30 11:22 | 38.87514 | 1.36986 | 7 ft | 4 kts | 242° |
| 2026-04-30 11:22 | 38.87521 | 1.37002 | 7 ft | 0 kts | 242° |
| 2026-04-30 11:23 | 38.87520 | 1.37000 | 8 ft | 4 kts | 242° |
| 2026-04-30 11:24 | 38.87492 | 1.36932 | 7 ft | 13 kts | 242° |
| 2026-04-30 11:24 | 38.87416 | 1.36798 | 7 ft | 21 kts | 192° |
| 2026-04-30 11:24 | 38.87285 | 1.36856 | 8 ft | 18 kts | 196° |
| 2026-04-30 11:25 | 38.87133 | 1.36488 | 7 ft | 33 kts | 242° |
| 2026-04-30 11:25 | 38.87029 | 1.36235 | 7 ft | 30 kts | 242° |
| 2026-04-30 11:25 | 38.86881 | 1.36318 | 4 ft | 20 kts | 92° |
| 2026-04-30 11:26 | 38.87277 | 1.37297 | 10 ft | 133 kts | 62° |
| 2026-04-30 11:26 | 38.87800 | 1.38534 | 328 ft | 169 kts | 61° |
| 2026-04-30 11:26 | 38.88333 | 1.39958 | 1110 ft | 185 kts | 72° |
| 2026-04-30 11:27 | 38.88609 | 1.41617 | 1957 ft | 196 kts | 79° |
| 2026-04-30 11:27 | 38.88884 | 1.43405 | 2568 ft | 212 kts | 77° |
| 2026-04-30 11:27 | 38.89218 | 1.45287 | 3216 ft | 220 kts | 77° |
| 2026-04-30 11:27 | 38.89572 | 1.47230 | 3998 ft | 225 kts | 77° |
| 2026-04-30 11:28 | 38.90292 | 1.51187 | 5648 ft | 233 kts | 77° |
| 2026-04-30 11:28 | 38.90663 | 1.53198 | 6431 ft | 237 kts | 75° |
| 2026-04-30 11:28 | 38.91492 | 1.55066 | 7102 ft | 249 kts | 45° |
| 2026-04-30 11:29 | 38.92836 | 1.56615 | 7369 ft | 278 kts | 40° |
| 2026-04-30 11:29 | 38.94332 | 1.58281 | 8003 ft | 290 kts | 41° |
| 2026-04-30 11:29 | 38.97411 | 1.61779 | 9610 ft | 300 kts | 41° |
| 2026-04-30 11:30 | 39.00754 | 1.65109 | 11196 ft | 309 kts | 19° |
| 2026-04-30 11:30 | 39.02841 | 1.65678 | 12033 ft | 308 kts | 3° |
| 2026-04-30 11:30 | 39.04989 | 1.65943 | 12831 ft | 312 kts | 2° |
| 2026-04-30 11:31 | 39.07165 | 1.66206 | 13598 ft | 316 kts | 2° |
| 2026-04-30 11:31 | 39.08880 | 1.66380 | 14181 ft | 318 kts | 356° |
| 2026-04-30 11:31 | 39.11040 | 1.65835 | 14725 ft | 323 kts | 335° |
| 2026-04-30 11:31 | 39.13190 | 1.64689 | 14894 ft | 346 kts | 333° |
| 2026-04-30 11:32 | 39.15444 | 1.63394 | 15221 ft | 362 kts | 332° |
| 2026-04-30 11:32 | 39.17759 | 1.62049 | 15857 ft | 367 kts | 333° |
| 2026-04-30 11:32 | 39.20104 | 1.60701 | 16581 ft | 370 kts | 333° |
| 2026-04-30 11:33 | 39.24847 | 1.58006 | 17988 ft | 376 kts | 333° |
| 2026-04-30 11:33 | 39.27252 | 1.56648 | 18626 ft | 379 kts | 333° |
| 2026-04-30 11:33 | 39.29676 | 1.55285 | 19368 ft | 379 kts | 333° |
| 2026-04-30 11:33 | 39.32083 | 1.53935 | 20222 ft | 375 kts | 332° |
| 2026-04-30 11:34 | 39.34471 | 1.52593 | 21044 ft | 373 kts | 332° |
| 2026-04-30 11:34 | 39.36841 | 1.51260 | 21783 ft | 372 kts | 332° |
| 2026-04-30 11:34 | 39.39213 | 1.49923 | 22480 ft | 371 kts | 332° |
| 2026-04-30 11:34 | 39.41578 | 1.48590 | 23196 ft | 370 kts | 332° |
| 2026-04-30 11:35 | 39.43928 | 1.47265 | 23833 ft | 370 kts | 331° |
| 2026-04-30 11:35 | 39.46259 | 1.45950 | 24036 ft | 367 kts | 331° |
| 2026-04-30 11:35 | 39.48594 | 1.44633 | 24065 ft | 366 kts | 331° |
| 2026-04-30 11:35 | 39.50941 | 1.43305 | 24079 ft | 369 kts | 331° |
| 2026-04-30 11:36 | 39.53292 | 1.41973 | 24087 ft | 369 kts | 331° |
| 2026-04-30 11:36 | 39.55126 | 1.40935 | 24080 ft | 368 kts | 331° |
| 2026-04-30 11:36 | 39.57475 | 1.39602 | 24077 ft | 368 kts | 331° |
| 2026-04-30 11:36 | 39.59822 | 1.38292 | 24063 ft | 369 kts | 334° |
| 2026-04-30 11:37 | 39.62347 | 1.37570 | 24085 ft | 376 kts | 349° |
| 2026-04-30 11:37 | 39.64960 | 1.37239 | 24077 ft | 378 kts | 349° |
| 2026-04-30 11:37 | 39.67582 | 1.36933 | 24081 ft | 378 kts | 349° |
| 2026-04-30 11:37 | 39.70205 | 1.36628 | 24079 ft | 379 kts | 349° |
| 2026-04-30 11:38 | 39.72829 | 1.36312 | 24067 ft | 379 kts | 349° |
| 2026-04-30 11:38 | 39.75455 | 1.35986 | 24080 ft | 378 kts | 349° |
| 2026-04-30 11:38 | 39.78070 | 1.35651 | 24079 ft | 378 kts | 349° |
| 2026-04-30 11:38 | 39.80690 | 1.35310 | 24083 ft | 378 kts | 349° |
| 2026-04-30 11:39 | 39.83310 | 1.34964 | 24079 ft | 378 kts | 349° |
| 2026-04-30 11:39 | 39.85928 | 1.34618 | 24090 ft | 378 kts | 349° |
| 2026-04-30 11:39 | 39.88545 | 1.34272 | 24090 ft | 378 kts | 349° |
| 2026-04-30 11:39 | 39.91168 | 1.33925 | 24088 ft | 379 kts | 349° |
| 2026-04-30 11:40 | 39.93787 | 1.33577 | 24091 ft | 378 kts | 349° |
| 2026-04-30 11:40 | 39.96373 | 1.33233 | 24089 ft | 378 kts | 349° |
| 2026-04-30 11:40 | 39.98989 | 1.32885 | 24099 ft | 378 kts | 349° |
| 2026-04-30 11:40 | 40.01603 | 1.32537 | 24095 ft | 378 kts | 349° |
| 2026-04-30 11:41 | 40.04203 | 1.32192 | 24074 ft | 370 kts | 349° |
| 2026-04-30 11:41 | 40.06168 | 1.31933 | 24075 ft | 364 kts | 349° |
| 2026-04-30 11:41 | 40.08666 | 1.31603 | 23865 ft | 360 kts | 348° |
| 2026-04-30 11:41 | 40.11174 | 1.31266 | 23454 ft | 362 kts | 349° |
| 2026-04-30 11:42 | 40.13669 | 1.30934 | 23113 ft | 360 kts | 349° |
| 2026-04-30 11:42 | 40.16147 | 1.30600 | 22767 ft | 357 kts | 349° |
| 2026-04-30 11:42 | 40.18619 | 1.30267 | 22421 ft | 356 kts | 349° |
| 2026-04-30 11:42 | 40.21076 | 1.29937 | 22076 ft | 354 kts | 349° |
| 2026-04-30 11:43 | 40.23513 | 1.29610 | 21738 ft | 352 kts | 349° |
| 2026-04-30 11:43 | 40.25941 | 1.29285 | 21398 ft | 350 kts | 349° |
| 2026-04-30 11:43 | 40.28362 | 1.28961 | 21060 ft | 348 kts | 349° |
| 2026-04-30 11:43 | 40.30763 | 1.28638 | 20726 ft | 346 kts | 349° |
| 2026-04-30 11:44 | 40.33151 | 1.28317 | 20396 ft | 344 kts | 349° |
| 2026-04-30 11:44 | 40.35551 | 1.28286 | 20035 ft | 350 kts | 7° |
| 2026-04-30 11:44 | 40.37853 | 1.29336 | 19741 ft | 351 kts | 21° |
| 2026-04-30 11:44 | 40.40049 | 1.30714 | 19408 ft | 350 kts | 24° |
| 2026-04-30 11:45 | 40.42217 | 1.32136 | 19064 ft | 348 kts | 24° |
| 2026-04-30 11:45 | 40.44373 | 1.33554 | 18757 ft | 346 kts | 24° |
| 2026-04-30 11:45 | 40.46520 | 1.34952 | 18427 ft | 343 kts | 24° |
| 2026-04-30 11:45 | 40.48659 | 1.36327 | 18105 ft | 341 kts | 24° |
| 2026-04-30 11:46 | 40.50790 | 1.37688 | 17784 ft | 339 kts | 23° |
| 2026-04-30 11:46 | 40.52444 | 1.38742 | 17532 ft | 338 kts | 24° |
| 2026-04-30 11:46 | 40.54552 | 1.40085 | 17213 ft | 336 kts | 24° |
| 2026-04-30 11:46 | 40.56620 | 1.41404 | 16900 ft | 334 kts | 24° |
| 2026-04-30 11:47 | 40.58731 | 1.42747 | 16578 ft | 332 kts | 24° |
| 2026-04-30 11:47 | 40.60771 | 1.44048 | 16272 ft | 330 kts | 24° |
| 2026-04-30 11:47 | 40.62831 | 1.45375 | 15893 ft | 331 kts | 25° |
| 2026-04-30 11:47 | 40.64874 | 1.46814 | 15412 ft | 335 kts | 27° |
| 2026-04-30 11:48 | 40.66915 | 1.48312 | 14937 ft | 338 kts | 28° |
| 2026-04-30 11:48 | 40.68979 | 1.49835 | 14432 ft | 341 kts | 28° |
| 2026-04-30 11:48 | 40.71062 | 1.51367 | 13942 ft | 344 kts | 28° |
| 2026-04-30 11:48 | 40.73161 | 1.52903 | 13436 ft | 347 kts | 28° |
| 2026-04-30 11:49 | 40.75283 | 1.54451 | 12930 ft | 349 kts | 28° |
| 2026-04-30 11:49 | 40.77416 | 1.56007 | 12419 ft | 351 kts | 28° |
| 2026-04-30 11:49 | 40.79558 | 1.57566 | 11907 ft | 353 kts | 28° |
| 2026-04-30 11:49 | 40.81713 | 1.59135 | 11390 ft | 354 kts | 28° |
| 2026-04-30 11:50 | 40.83877 | 1.60711 | 10867 ft | 355 kts | 28° |
| 2026-04-30 11:50 | 40.86035 | 1.62287 | 10351 ft | 355 kts | 28° |
| 2026-04-30 11:50 | 40.88194 | 1.63863 | 9997 ft | 350 kts | 29° |
| 2026-04-30 11:50 | 40.90301 | 1.65402 | 9529 ft | 349 kts | 29° |
| 2026-04-30 11:51 | 40.92413 | 1.66945 | 9115 ft | 346 kts | 29° |
| 2026-04-30 11:51 | 40.94501 | 1.68472 | 8709 ft | 343 kts | 29° |
| 2026-04-30 11:51 | 40.96587 | 1.69999 | 8305 ft | 339 kts | 29° |
| 2026-04-30 11:51 | 40.98682 | 1.71396 | 7916 ft | 336 kts | 23° |
| 2026-04-30 11:52 | 41.00853 | 1.72496 | 7516 ft | 332 kts | 20° |
| 2026-04-30 11:52 | 41.03023 | 1.73502 | 7146 ft | 329 kts | 19° |
| 2026-04-30 11:52 | 41.05147 | 1.74487 | 6776 ft | 326 kts | 20° |
| 2026-04-30 11:52 | 41.07276 | 1.75494 | 6363 ft | 324 kts | 20° |
| 2026-04-30 11:53 | 41.09394 | 1.76517 | 5935 ft | 323 kts | 20° |
| 2026-04-30 11:53 | 41.11483 | 1.77537 | 5556 ft | 316 kts | 21° |
| 2026-04-30 11:53 | 41.13521 | 1.78541 | 5193 ft | 309 kts | 21° |
| 2026-04-30 11:53 | 41.15512 | 1.79523 | 4838 ft | 302 kts | 21° |
| 2026-04-30 11:54 | 41.17455 | 1.80485 | 4493 ft | 295 kts | 21° |
| 2026-04-30 11:54 | 41.19351 | 1.81426 | 4156 ft | 286 kts | 22° |
| 2026-04-30 11:54 | 41.20978 | 1.82786 | 3903 ft | 271 kts | 50° |
| 2026-04-30 11:54 | 41.21916 | 1.84885 | 3604 ft | 262 kts | 66° |
| 2026-04-30 11:55 | 41.22645 | 1.87048 | 3283 ft | 251 kts | 66° |
| 2026-04-30 11:55 | 41.23332 | 1.89115 | 2938 ft | 238 kts | 66° |
| 2026-04-30 11:55 | 41.23992 | 1.91063 | 2641 ft | 225 kts | 66° |
| 2026-04-30 11:55 | 41.24630 | 1.92942 | 2342 ft | 224 kts | 66° |
| 2026-04-30 11:56 | 41.25267 | 1.94813 | 2035 ft | 220 kts | 66° |
| 2026-04-30 11:56 | 41.25887 | 1.96634 | 1748 ft | 212 kts | 66° |
| 2026-04-30 11:56 | 41.26483 | 1.98385 | 1472 ft | 204 kts | 66° |
| 2026-04-30 11:56 | 41.27057 | 2.00072 | 1206 ft | 193 kts | 66° |
| 2026-04-30 11:57 | 41.27584 | 2.01618 | 988 ft | 172 kts | 66° |
| 2026-04-30 11:57 | 41.28042 | 2.02960 | 745 ft | 152 kts | 66° |
| 2026-04-30 11:57 | 41.28460 | 2.04170 | 564 ft | 140 kts | 65° |
| 2026-04-30 11:57 | 41.28853 | 2.05316 | 391 ft | 134 kts | 67° |
| 2026-04-30 11:58 | 41.29227 | 2.06437 | 218 ft | 131 kts | 66° |
| 2026-04-30 11:58 | 41.29607 | 2.07549 | 52 ft | 132 kts | 66° |
| 2026-04-30 11:58 | 41.29958 | 2.08577 | 24 ft | 102 kts | 66° |
| 2026-04-30 11:58 | 41.30159 | 2.09167 | 17 ft | 28 kts | 65° |
| 2026-04-30 11:59 | 41.30261 | 2.09388 | 16 ft | 30 kts | 50° |
| 2026-04-30 11:59 | 41.30421 | 2.09538 | 17 ft | 24 kts | 5° |
| 2026-04-30 11:59 | 41.30482 | 2.09386 | 19 ft | 23 kts | 245° |
| 2026-04-30 11:59 | 41.30418 | 2.09198 | 19 ft | 22 kts | 246° |
| 2026-04-30 12:00 | 41.30355 | 2.09015 | 17 ft | 21 kts | 245° |
| 2026-04-30 12:00 | 41.30295 | 2.08837 | 19 ft | 21 kts | 245° |
| 2026-04-30 12:00 | 41.30235 | 2.08665 | 20 ft | 20 kts | 245° |
| 2026-04-30 12:00 | 41.30178 | 2.08497 | 19 ft | 20 kts | 245° |
| 2026-04-30 12:01 | 41.30123 | 2.08336 | 18 ft | 19 kts | 246° |
| 2026-04-30 12:01 | 41.30148 | 2.08200 | 16 ft | 19 kts | 334° |
| 2026-04-30 12:01 | 41.30253 | 2.08149 | 19 ft | 11 kts | 358° |
| 2026-04-30 12:01 | 41.30316 | 2.08182 | 20 ft | 0 kts | 25° |
| 2026-04-30 12:02 | 41.30317 | 2.08183 | 20 ft | 0 kts | 26° |